<?xml version="1.0" encoding="utf-8"?>
<gpx xmlns:xsi="http://www.w3.org/2001/XMLSchema-instance" xmlns:xsd="http://www.w3.org/2001/XMLSchema" version="1.1" creator="Shapelink.com" xmlns="http://www.topografix.com/GPX/1/1" xmlns:gpxtpx="http://www.garmin.com/xmlschemas/TrackPointExtension/v1">
  <metadata>
    <name>Sykling 3.74 km, 2014-06-12</name>
    <desc></desc>
    <author><name>Carl Grundberg</name></author> 
    <time>2014-06-12T15:28:45Z</time>
  </metadata>
  <trk>
    <name>Sykling 3.74 km, 2014-06-12</name>
    <trkseg>
      <trkpt lat="56.3483508" lon="13.6471517">
        <ele>108.286</ele>
        <time>2014-06-12T15:28:45Z</time>
      </trkpt>
      <trkpt lat="56.3480512" lon="13.6474803">
        <ele>108.286</ele>
        <time>2014-06-12T15:28:53Z</time>
      </trkpt>
      <trkpt lat="56.3477494" lon="13.6478163">
        <ele>108.286</ele>
        <time>2014-06-12T15:29:00Z</time>
      </trkpt>
      <trkpt lat="56.3476114" lon="13.6479674">
        <ele>107.805</ele>
        <time>2014-06-12T15:29:03Z</time>
      </trkpt>
      <trkpt lat="56.3473163" lon="13.6483039">
        <ele>107.805</ele>
        <time>2014-06-12T15:29:10Z</time>
      </trkpt>
      <trkpt lat="56.3468815" lon="13.6488216">
        <ele>107.324</ele>
        <time>2014-06-12T15:29:20Z</time>
      </trkpt>
      <trkpt lat="56.3465589" lon="13.6491915">
        <ele>106.844</ele>
        <time>2014-06-12T15:29:27Z</time>
      </trkpt>
      <trkpt lat="56.3462803" lon="13.6495207">
        <ele>104.921</ele>
        <time>2014-06-12T15:29:33Z</time>
      </trkpt>
      <trkpt lat="56.3459738" lon="13.6498644">
        <ele>103.96</ele>
        <time>2014-06-12T15:29:39Z</time>
      </trkpt>
      <trkpt lat="56.3456259" lon="13.6502544">
        <ele>103.96</ele>
        <time>2014-06-12T15:29:46Z</time>
      </trkpt>
      <trkpt lat="56.3452965" lon="13.6506284">
        <ele>104.921</ele>
        <time>2014-06-12T15:29:53Z</time>
      </trkpt>
      <trkpt lat="56.3448651" lon="13.6511118">
        <ele>104.44</ele>
        <time>2014-06-12T15:30:02Z</time>
      </trkpt>
      <trkpt lat="56.3445785" lon="13.6514434">
        <ele>101.076</ele>
        <time>2014-06-12T15:30:07Z</time>
      </trkpt>
      <trkpt lat="56.3445227" lon="13.6515097">
        <ele>100.595</ele>
        <time>2014-06-12T15:30:08Z</time>
      </trkpt>
      <trkpt lat="56.3443597" lon="13.6519417">
        <ele>99.1531</ele>
        <time>2014-06-12T15:30:13Z</time>
      </trkpt>
      <trkpt lat="56.3442435" lon="13.6527275">
        <ele>99.6338</ele>
        <time>2014-06-12T15:30:20Z</time>
      </trkpt>
      <trkpt lat="56.3441558" lon="13.6531618">
        <ele>101.556</ele>
        <time>2014-06-12T15:30:24Z</time>
      </trkpt>
      <trkpt lat="56.3441435" lon="13.6536038">
        <ele>102.518</ele>
        <time>2014-06-12T15:30:28Z</time>
      </trkpt>
      <trkpt lat="56.3442646" lon="13.6543156">
        <ele>102.037</ele>
        <time>2014-06-12T15:30:35Z</time>
      </trkpt>
      <trkpt lat="56.3442919" lon="13.6544129">
        <ele>102.037</ele>
        <time>2014-06-12T15:30:36Z</time>
      </trkpt>
      <trkpt lat="56.3443079" lon="13.6548216">
        <ele>102.518</ele>
        <time>2014-06-12T15:30:40Z</time>
      </trkpt>
      <trkpt lat="56.3441777" lon="13.6551145">
        <ele>102.518</ele>
        <time>2014-06-12T15:30:44Z</time>
      </trkpt>
      <trkpt lat="56.3438418" lon="13.6555944">
        <ele>102.518</ele>
        <time>2014-06-12T15:30:52Z</time>
      </trkpt>
      <trkpt lat="56.3435617" lon="13.6560054">
        <ele>102.998</ele>
        <time>2014-06-12T15:30:59Z</time>
      </trkpt>
      <trkpt lat="56.3433076" lon="13.656514">
        <ele>103.479</ele>
        <time>2014-06-12T15:31:07Z</time>
      </trkpt>
      <trkpt lat="56.3431183" lon="13.6570693">
        <ele>102.998</ele>
        <time>2014-06-12T15:31:12Z</time>
      </trkpt>
      <trkpt lat="56.343044" lon="13.6572498">
        <ele>102.998</ele>
        <time>2014-06-12T15:31:14Z</time>
      </trkpt>
      <trkpt lat="56.342982" lon="13.6576291">
        <ele>103.96</ele>
        <time>2014-06-12T15:31:18Z</time>
      </trkpt>
      <trkpt lat="56.3430075" lon="13.6581536">
        <ele>104.921</ele>
        <time>2014-06-12T15:31:24Z</time>
      </trkpt>
      <trkpt lat="56.3430121" lon="13.6582339">
        <ele>104.921</ele>
        <time>2014-06-12T15:31:25Z</time>
      </trkpt>
      <trkpt lat="56.3429841" lon="13.6587037">
        <ele>105.882</ele>
        <time>2014-06-12T15:31:31Z</time>
      </trkpt>
      <trkpt lat="56.3430012" lon="13.6590181">
        <ele>106.363</ele>
        <time>2014-06-12T15:31:35Z</time>
      </trkpt>
      <trkpt lat="56.3429192" lon="13.6592927">
        <ele>105.402</ele>
        <time>2014-06-12T15:31:40Z</time>
      </trkpt>
      <trkpt lat="56.342871" lon="13.6592967">
        <ele>105.402</ele>
        <time>2014-06-12T15:31:41Z</time>
      </trkpt>
      <trkpt lat="56.3425359" lon="13.659344">
        <ele>102.518</ele>
        <time>2014-06-12T15:31:46Z</time>
      </trkpt>
      <trkpt lat="56.3419388" lon="13.6595625">
        <ele>100.595</ele>
        <time>2014-06-12T15:31:54Z</time>
      </trkpt>
      <trkpt lat="56.3415379" lon="13.6597496">
        <ele>100.115</ele>
        <time>2014-06-12T15:32:00Z</time>
      </trkpt>
      <trkpt lat="56.3411384" lon="13.6598965">
        <ele>100.595</ele>
        <time>2014-06-12T15:32:07Z</time>
      </trkpt>
      <trkpt lat="56.3408746" lon="13.6599967">
        <ele>100.595</ele>
        <time>2014-06-12T15:32:12Z</time>
      </trkpt>
      <trkpt lat="56.3405505" lon="13.6601172">
        <ele>102.037</ele>
        <time>2014-06-12T15:32:19Z</time>
      </trkpt>
      <trkpt lat="56.3402296" lon="13.6602311">
        <ele>103.479</ele>
        <time>2014-06-12T15:32:27Z</time>
      </trkpt>
      <trkpt lat="56.3400667" lon="13.6602799">
        <ele>104.44</ele>
        <time>2014-06-12T15:32:31Z</time>
      </trkpt>
      <trkpt lat="56.339662" lon="13.6604414">
        <ele>104.921</ele>
        <time>2014-06-12T15:32:40Z</time>
      </trkpt>
      <trkpt lat="56.3395363" lon="13.6605224">
        <ele>105.402</ele>
        <time>2014-06-12T15:32:43Z</time>
      </trkpt>
      <trkpt lat="56.3392807" lon="13.6608399">
        <ele>105.882</ele>
        <time>2014-06-12T15:32:50Z</time>
      </trkpt>
      <trkpt lat="56.3390954" lon="13.6610912">
        <ele>105.402</ele>
        <time>2014-06-12T15:32:55Z</time>
      </trkpt>
      <trkpt lat="56.3390004" lon="13.6614413">
        <ele>103.479</ele>
        <time>2014-06-12T15:32:59Z</time>
      </trkpt>
      <trkpt lat="56.3390021" lon="13.6615719">
        <ele>102.998</ele>
        <time>2014-06-12T15:33:00Z</time>
      </trkpt>
      <trkpt lat="56.3390622" lon="13.6625276">
        <ele>102.037</ele>
        <time>2014-06-12T15:33:07Z</time>
      </trkpt>
      <trkpt lat="56.3391041" lon="13.6632027">
        <ele>102.518</ele>
        <time>2014-06-12T15:33:13Z</time>
      </trkpt>
      <trkpt lat="56.3391098" lon="13.6636772">
        <ele>103.479</ele>
        <time>2014-06-12T15:33:18Z</time>
      </trkpt>
      <trkpt lat="56.3391082" lon="13.6639007">
        <ele>103.96</ele>
        <time>2014-06-12T15:33:23Z</time>
      </trkpt>
      <trkpt lat="56.339112" lon="13.6639873">
        <ele>104.44</ele>
        <time>2014-06-12T15:33:27Z</time>
      </trkpt>
      <trkpt lat="56.3390235" lon="13.6640941">
        <ele>104.44</ele>
        <time>2014-06-12T15:33:31Z</time>
      </trkpt>
      <trkpt lat="56.3389892" lon="13.6641022">
        <ele>104.44</ele>
        <time>2014-06-12T15:33:32Z</time>
      </trkpt>
      <trkpt lat="56.3386316" lon="13.664206">
        <ele>104.44</ele>
        <time>2014-06-12T15:33:41Z</time>
      </trkpt>
      <trkpt lat="56.3382944" lon="13.6643122">
        <ele>103.96</ele>
        <time>2014-06-12T15:33:48Z</time>
      </trkpt>
      <trkpt lat="56.3380438" lon="13.6645695">
        <ele>102.998</ele>
        <time>2014-06-12T15:33:53Z</time>
      </trkpt>
      <trkpt lat="56.3378359" lon="13.6648852">
        <ele>102.037</ele>
        <time>2014-06-12T15:33:58Z</time>
      </trkpt>
      <trkpt lat="56.3375103" lon="13.6654679">
        <ele>102.518</ele>
        <time>2014-06-12T15:34:06Z</time>
      </trkpt>
      <trkpt lat="56.3374082" lon="13.6657849">
        <ele>102.998</ele>
        <time>2014-06-12T15:34:10Z</time>
      </trkpt>
      <trkpt lat="56.3372746" lon="13.666469">
        <ele>103.96</ele>
        <time>2014-06-12T15:34:19Z</time>
      </trkpt>
      <trkpt lat="56.3372388" lon="13.6666717">
        <ele>104.44</ele>
        <time>2014-06-12T15:34:22Z</time>
      </trkpt>
      <trkpt lat="56.3372407" lon="13.6668826">
        <ele>104.44</ele>
        <time>2014-06-12T15:34:25Z</time>
      </trkpt>
      <trkpt lat="56.3372584" lon="13.6669561">
        <ele>103.96</ele>
        <time>2014-06-12T15:34:26Z</time>
      </trkpt>
      <trkpt lat="56.3374068" lon="13.6674346">
        <ele>103.479</ele>
        <time>2014-06-12T15:34:32Z</time>
      </trkpt>
      <trkpt lat="56.3376081" lon="13.6680441">
        <ele>104.44</ele>
        <time>2014-06-12T15:34:40Z</time>
      </trkpt>
      <trkpt lat="56.3376513" lon="13.6681776">
        <ele>104.44</ele>
        <time>2014-06-12T15:34:42Z</time>
      </trkpt>
      <trkpt lat="56.3378478" lon="13.6687817">
        <ele>103.96</ele>
        <time>2014-06-12T15:34:50Z</time>
      </trkpt>
      <trkpt lat="56.3378749" lon="13.668865">
        <ele>103.96</ele>
        <time>2014-06-12T15:34:51Z</time>
      </trkpt>
      <trkpt lat="56.3380845" lon="13.6696749">
        <ele>102.998</ele>
        <time>2014-06-12T15:34:59Z</time>
      </trkpt>
      <trkpt lat="56.3382443" lon="13.6704853">
        <ele>103.479</ele>
        <time>2014-06-12T15:35:07Z</time>
      </trkpt>
      <trkpt lat="56.3382515" lon="13.6708971">
        <ele>103.479</ele>
        <time>2014-06-12T15:35:11Z</time>
      </trkpt>
      <trkpt lat="56.3381101" lon="13.6716993">
        <ele>101.556</ele>
        <time>2014-06-12T15:35:18Z</time>
      </trkpt>
      <trkpt lat="56.3379723" lon="13.672416">
        <ele>101.556</ele>
        <time>2014-06-12T15:35:24Z</time>
      </trkpt>
      <trkpt lat="56.3378786" lon="13.6730469">
        <ele>102.518</ele>
        <time>2014-06-12T15:35:30Z</time>
      </trkpt>
      <trkpt lat="56.3378374" lon="13.6734369">
        <ele>103.479</ele>
        <time>2014-06-12T15:35:34Z</time>
      </trkpt>
      <trkpt lat="56.337805" lon="13.6737273">
        <ele>104.44</ele>
        <time>2014-06-12T15:35:37Z</time>
      </trkpt>
      <trkpt lat="56.3378081" lon="13.6739812">
        <ele>105.402</ele>
        <time>2014-06-12T15:35:40Z</time>
      </trkpt>
      <trkpt lat="56.3378806" lon="13.6744085">
        <ele>105.882</ele>
        <time>2014-06-12T15:35:45Z</time>
      </trkpt>
      <trkpt lat="56.3380732" lon="13.6749489">
        <ele>105.882</ele>
        <time>2014-06-12T15:35:51Z</time>
      </trkpt>
      <trkpt lat="56.3384215" lon="13.6753852">
        <ele>106.363</ele>
        <time>2014-06-12T15:35:58Z</time>
      </trkpt>
      <trkpt lat="56.3386825" lon="13.6755909">
        <ele>106.363</ele>
        <time>2014-06-12T15:36:03Z</time>
      </trkpt>
      <trkpt lat="56.3389263" lon="13.6758088">
        <ele>106.844</ele>
        <time>2014-06-12T15:36:08Z</time>
      </trkpt>
      <trkpt lat="56.3392108" lon="13.6760444">
        <ele>106.363</ele>
        <time>2014-06-12T15:36:14Z</time>
      </trkpt>
      <trkpt lat="56.3395534" lon="13.6763211">
        <ele>106.363</ele>
        <time>2014-06-12T15:36:21Z</time>
      </trkpt>
      <trkpt lat="56.339789" lon="13.6765046">
        <ele>105.882</ele>
        <time>2014-06-12T15:36:26Z</time>
      </trkpt>
      <trkpt lat="56.3401162" lon="13.6767652">
        <ele>105.882</ele>
        <time>2014-06-12T15:36:33Z</time>
      </trkpt>
      <trkpt lat="56.3403553" lon="13.6770257">
        <ele>106.363</ele>
        <time>2014-06-12T15:36:39Z</time>
      </trkpt>
      <trkpt lat="56.3405444" lon="13.6773033">
        <ele>106.363</ele>
        <time>2014-06-12T15:36:44Z</time>
      </trkpt>
      <trkpt lat="56.3407944" lon="13.6777103">
        <ele>106.844</ele>
        <time>2014-06-12T15:36:51Z</time>
      </trkpt>
      <trkpt lat="56.3410503" lon="13.6779279">
        <ele>107.324</ele>
        <time>2014-06-12T15:36:57Z</time>
      </trkpt>
      <trkpt lat="56.3411005" lon="13.6779513">
        <ele>106.844</ele>
        <time>2014-06-12T15:36:58Z</time>
      </trkpt>
      <trkpt lat="56.3412884" lon="13.678017">
        <ele>106.844</ele>
        <time>2014-06-12T15:37:02Z</time>
      </trkpt>
      <trkpt lat="56.3414832" lon="13.6781191">
        <ele>106.844</ele>
        <time>2014-06-12T15:37:07Z</time>
      </trkpt>
      <trkpt lat="56.3416153" lon="13.6782133">
        <ele>106.844</ele>
        <time>2014-06-12T15:37:10Z</time>
      </trkpt>
      <trkpt lat="56.3417024" lon="13.6782969">
        <ele>107.805</ele>
        <time>2014-06-12T15:37:12Z</time>
      </trkpt>
      <trkpt lat="56.3419261" lon="13.6786531">
        <ele>107.324</ele>
        <time>2014-06-12T15:37:18Z</time>
      </trkpt>
      <trkpt lat="56.3419648" lon="13.67873">
        <ele>107.324</ele>
        <time>2014-06-12T15:37:19Z</time>
      </trkpt>
      <trkpt lat="56.3422708" lon="13.6793873">
        <ele>108.286</ele>
        <time>2014-06-12T15:37:27Z</time>
      </trkpt>
      <trkpt lat="56.3425719" lon="13.680039">
        <ele>109.728</ele>
        <time>2014-06-12T15:37:35Z</time>
      </trkpt>
      <trkpt lat="56.3426677" lon="13.6802724">
        <ele>109.247</ele>
        <time>2014-06-12T15:37:38Z</time>
      </trkpt>
      <trkpt lat="56.3429021" lon="13.680823">
        <ele>108.766</ele>
        <time>2014-06-12T15:37:45Z</time>
      </trkpt>
      <trkpt lat="56.3430768" lon="13.6812491">
        <ele>108.766</ele>
        <time>2014-06-12T15:37:51Z</time>
      </trkpt>
      <trkpt lat="56.3431732" lon="13.6815141">
        <ele>110.208</ele>
        <time>2014-06-12T15:37:55Z</time>
      </trkpt>
      <trkpt lat="56.3432228" lon="13.6817584">
        <ele>111.17</ele>
        <time>2014-06-12T15:37:59Z</time>
      </trkpt>
      <trkpt lat="56.343276" lon="13.6820074">
        <ele>112.131</ele>
        <time>2014-06-12T15:38:03Z</time>
      </trkpt>
      <trkpt lat="56.3433648" lon="13.6823282">
        <ele>112.131</ele>
        <time>2014-06-12T15:38:10Z</time>
      </trkpt>
      <trkpt lat="56.3434428" lon="13.682538">
        <ele>112.612</ele>
        <time>2014-06-12T15:38:16Z</time>
      </trkpt>
      <trkpt lat="56.3435819" lon="13.6827015">
        <ele>113.092</ele>
        <time>2014-06-12T15:38:22Z</time>
      </trkpt>
      <trkpt lat="56.3438283" lon="13.6828234">
        <ele>114.534</ele>
        <time>2014-06-12T15:38:29Z</time>
      </trkpt>
      <trkpt lat="56.3441689" lon="13.6828233">
        <ele>114.534</ele>
        <time>2014-06-12T15:38:36Z</time>
      </trkpt>
      <trkpt lat="56.3444988" lon="13.6828357">
        <ele>114.534</ele>
        <time>2014-06-12T15:38:42Z</time>
      </trkpt>
      <trkpt lat="56.3445489" lon="13.6828459">
        <ele>114.534</ele>
        <time>2014-06-12T15:38:43Z</time>
      </trkpt>
      <trkpt lat="56.3447288" lon="13.6829849">
        <ele>114.054</ele>
        <time>2014-06-12T15:38:47Z</time>
      </trkpt>
      <trkpt lat="56.3449858" lon="13.6833998">
        <ele>111.65</ele>
        <time>2014-06-12T15:38:53Z</time>
      </trkpt>
      <trkpt lat="56.3452409" lon="13.6838768">
        <ele>111.65</ele>
        <time>2014-06-12T15:38:59Z</time>
      </trkpt>
      <trkpt lat="56.3453052" lon="13.684023">
        <ele>112.131</ele>
        <time>2014-06-12T15:39:01Z</time>
      </trkpt>
      <trkpt lat="56.3453545" lon="13.684253">
        <ele>113.092</ele>
        <time>2014-06-12T15:39:04Z</time>
      </trkpt>
      <trkpt lat="56.3454048" lon="13.684489">
        <ele>114.054</ele>
        <time>2014-06-12T15:39:07Z</time>
      </trkpt>
      <trkpt lat="56.3455514" lon="13.6848548">
        <ele>115.496</ele>
        <time>2014-06-12T15:39:12Z</time>
      </trkpt>
      <trkpt lat="56.3456327" lon="13.685004">
        <ele>115.496</ele>
        <time>2014-06-12T15:39:14Z</time>
      </trkpt>
      <trkpt lat="56.3458047" lon="13.6853083">
        <ele>115.976</ele>
        <time>2014-06-12T15:39:19Z</time>
      </trkpt>
      <trkpt lat="56.3459497" lon="13.6854289">
        <ele>115.496</ele>
        <time>2014-06-12T15:39:23Z</time>
      </trkpt>
      <trkpt lat="56.346087" lon="13.6854942">
        <ele>116.457</ele>
        <time>2014-06-12T15:39:27Z</time>
      </trkpt>
      <trkpt lat="56.3462263" lon="13.6855615">
        <ele>117.418</ele>
        <time>2014-06-12T15:39:32Z</time>
      </trkpt>
      <trkpt lat="56.3463515" lon="13.6855418">
        <ele>117.418</ele>
        <time>2014-06-12T15:39:38Z</time>
      </trkpt>
      <trkpt lat="56.3464009" lon="13.6855758">
        <ele>118.86</ele>
        <time>2014-06-12T15:39:45Z</time>
      </trkpt>
    </trkseg>
  </trk>
</gpx>